Time;durP1;ratioP1;P1;durP2;ratioP2;P2;SDS_P1;SDS_P2;PMS_P1;PMS_P2;Temp;Humidity;BMP_temperature;BMP_pressure;BME280_temperature;BME280_humidity;BME280_pressure;Samples;Min_cycle;Max_cycle;Signal;HPM_P1;HPM_P2
2022/05/19 00:00:04;;;;;;;27.92;20.67;;;;;;;19.80;73.52;101564.72;6412576;23;20089;-83
2022/05/19 00:02:35;;;;;;;24.50;19.67;;;;;;;19.86;74.53;101560.97;6288065;23;20426;-83
2022/05/19 00:05:07;;;;;;;28.57;20.43;;;;;;;19.68;74.64;101559.88;6290572;23;20015;-83
2022/05/19 00:07:38;;;;;;;23.77;19.80;;;;;;;19.63;75.04;101548.63;6302197;23;20008;-84
2022/05/19 00:10:10;;;;;;;26.90;20.00;;;;;;;19.71;74.73;101554.47;6303122;23;20015;-85
2022/05/19 00:12:41;;;;;;;25.17;19.87;;;;;;;19.60;75.18;101546.94;6301286;23;20007;-84
2022/05/19 00:15:12;;;;;;;25.63;19.80;;;;;;;19.44;75.62;101541.38;6299536;23;20027;-84
2022/05/19 00:17:44;;;;;;;23.43;19.70;;;;;;;19.54;75.74;101541.88;6289961;23;20023;-85
2022/05/19 00:20:15;;;;;;;22.87;20.47;;;;;;;19.50;75.65;101538.50;6289752;23;20025;-83
2022/05/19 00:22:46;;;;;;;23.27;18.87;;;;;;;19.56;75.91;101539.19;6289854;23;20015;-85
2022/05/19 00:25:19;;;;;;;24.10;20.27;;;;;;;19.50;75.52;101530.56;6289135;23;20382;-86
2022/05/19 00:27:50;;;;;;;25.35;20.33;;;;;;;19.26;76.20;101531.50;6287915;23;20441;-84
2022/05/19 00:30:22;;;;;;;28.10;20.87;;;;;;;19.37;76.28;101534.59;6288258;23;20018;-85
2022/05/19 00:32:53;;;;;;;26.35;20.17;;;;;;;19.48;76.36;101526.25;6286308;23;20093;-85
2022/05/19 00:35:24;;;;;;;25.00;20.97;;;;;;;19.42;76.45;101523.84;6263374;23;20030;-85
2022/05/19 00:37:56;;;;;;;24.80;20.30;;;;;;;19.12;77.45;101519.63;6293377;23;20007;-85
2022/05/19 00:40:28;;;;;;;24.43;20.97;;;;;;;19.28;76.89;101519.09;6349418;23;20436;-86
2022/05/19 00:42:59;;;;;;;25.23;18.77;;;;;;;19.25;77.46;101516.56;6349195;23;20191;-85
2022/05/19 00:45:41;;;;;;;23.10;20.42;;;;;;;19.17;77.18;101516.84;6349415;23;20325;-85
2022/05/19 00:48:18;;;;;;;25.58;20.77;;;;;;;19.10;77.74;101515.34;6348852;23;20002;-85
2022/05/19 00:50:59;;;;;;;30.02;20.55;;;;;;;19.05;77.66;101518.16;6349696;23;20098;-85
2022/05/19 00:53:48;;;;;;;26.13;21.40;;;;;;;19.01;78.17;101508.59;6348413;23;20003;-86
2022/05/19 00:56:25;;;;;;;31.33;21.15;;;;;;;18.94;78.50;101505.31;6350285;23;20009;-85
2022/05/19 00:58:56;;;;;;;25.58;19.83;;;;;;;18.91;78.94;101502.78;6350058;23;20010;-86
2022/05/19 01:01:28;;;;;;;25.97;21.97;;;;;;;18.79;78.90;101492.66;6349957;23;20021;-86
2022/05/19 01:04:06;;;;;;;25.70;22.20;;;;;;;18.71;79.13;101497.34;6349295;23;20313;-86
2022/05/19 01:06:38;;;;;;;27.85;23.45;;;;;;;18.52;80.14;101487.44;6349154;23;20085;-85
2022/05/19 01:09:13;;;;;;;27.83;22.20;;;;;;;18.59;80.26;101483.69;6351220;23;20034;-86
2022/05/19 01:11:45;;;;;;;24.83;21.42;;;;;;;18.50;80.28;101486.63;6349134;23;20033;-85
2022/05/19 01:14:16;;;;;;;27.77;22.87;;;;;;;18.50;80.48;101484.00;6376342;23;20017;-85
2022/05/19 01:16:48;;;;;;;28.83;23.73;;;;;;;18.35;81.47;101479.22;6409919;23;20010;-85
2022/05/19 01:19:31;;;;;;;27.25;22.33;;;;;;;18.48;80.90;101480.53;6409295;23;20763;-85
2022/05/19 01:22:21;;;;;;;27.13;22.02;;;;;;;18.41;81.09;101473.75;6408991;23;20056;-85
2022/05/19 01:25:34;;;;;;;28.88;22.88;;;;;;;18.40;80.38;101469.38;6380218;23;20682;-84
2022/05/19 01:28:05;;;;;;;31.55;23.17;;;;;;;18.28;81.94;101464.53;6283709;23;20035;-82
2022/05/19 01:30:38;;;;;;;27.47;23.23;;;;;;;18.27;82.17;101465.44;6283905;23;20082;-83
2022/05/19 01:33:09;;;;;;;;;;;;;;;18.35;79.37;101463.38;6285309;23;20410;-84
2022/05/19 01:35:40;;;;;;;26.60;23.20;;;;;;;18.29;82.00;101446.00;6283789;23;19910;-84
2022/05/19 01:38:24;;;;;;;30.63;23.83;;;;;;;18.19;83.05;101445.47;6284067;23;20015;-84
2022/05/19 01:41:17;;;;;;;29.48;24.98;;;;;;;18.16;82.83;101444.69;6284245;23;20008;-84
2022/05/19 01:44:12;;;;;;;27.63;22.55;;;;;;;18.40;81.84;101448.25;6283822;23;20022;-85
2022/05/19 01:46:48;;;;;;;27.70;24.55;;;;;;;18.34;82.75;101446.69;6283846;23;20032;-85
2022/05/19 01:49:31;;;;;;;30.23;25.38;;;;;;;18.11;83.96;101449.25;6259583;23;20794;-83
2022/05/19 01:52:27;;;;;;;28.98;25.48;;;;;;;18.27;83.01;101446.97;6284404;23;20007;-85
2022/05/19 01:55:13;;;;;;;28.50;25.20;;;;;;;18.27;83.68;101445.16;6283805;23;20015;-85
2022/05/19 01:57:55;;;;;;;28.73;25.23;;;;;;;18.29;84.31;101442.47;6297676;23;20011;-85
2022/05/19 02:00:29;;;;;;;30.55;27.35;;;;;;;18.22;84.91;101440.06;6408320;23;20085;-86
2022/05/19 02:03:10;;;;;;;34.53;26.88;;;;;;;18.28;84.75;101433.72;6408562;23;20042;-85
2022/05/19 02:05:50;;;;;;;30.30;25.88;;;;;;;18.29;84.56;101432.81;6408283;23;20009;-85
2022/05/19 02:08:29;;;;;;;29.45;24.77;;;;;;;18.26;84.88;101429.38;6410306;23;20091;-83
2022/05/19 02:11:05;;;;;;;33.70;26.42;;;;;;;18.26;84.76;101432.91;6409243;23;20009;-82
2022/05/19 02:13:37;;;;;;;29.75;25.58;;;;;;;18.35;84.62;101426.44;6409105;23;20022;-84
2022/05/19 02:16:14;;;;;;;29.90;25.58;;;;;;;18.37;84.51;101429.88;6410733;23;20382;-85
2022/05/19 02:18:48;;;;;;;29.48;24.58;;;;;;;18.38;84.70;101429.81;6410597;23;20785;-83
2022/05/19 02:21:20;;;;;;;28.50;24.42;;;;;;;18.41;84.22;101434.16;6409601;23;20010;-83
2022/05/19 02:23:54;;;;;;;32.40;25.00;;;;;;;18.34;84.99;101432.66;6408445;23;20033;-84
2022/05/19 02:26:33;;;;;;;28.08;23.88;;;;;;;18.46;84.61;101434.00;6409214;23;20017;-85
2022/05/19 02:29:09;;;;;;;25.48;22.77;;;;;;;18.45;84.10;101434.88;6409812;23;20149;-83
2022/05/19 02:31:42;;;;;;;28.80;24.63;;;;;;;18.45;84.39;101438.41;6408375;23;20009;-85
2022/05/19 02:34:14;;;;;;;27.92;23.85;;;;;;;18.50;84.16;101440.88;6410096;23;20013;-84
2022/05/19 02:36:46;;;;;;;25.20;22.03;;;;;;;18.44;83.81;101434.03;6382239;23;20016;-83
2022/05/19 02:39:17;;;;;;;24.60;21.52;;;;;;;18.59;83.71;101441.44;6408225;23;20104;-81
2022/05/19 02:41:48;;;;;;;26.93;22.47;;;;;;;18.55;83.88;101446.88;6409147;23;20048;-85
2022/05/19 02:44:20;;;;;;;26.73;21.17;;;;;;;18.71;82.81;101449.81;6409502;23;20328;-85
2022/05/19 02:46:51;;;;;;;22.63;20.07;;;;;;;18.75;82.24;101449.63;6410447;23;20068;-84
2022/05/19 02:49:23;;;;;;;26.90;20.97;;;;;;;18.74;82.42;101445.28;6409256;23;20009;-85
2022/05/19 02:51:54;;;;;;;21.13;19.02;;;;;;;18.93;81.65;101447.25;6409674;23;20006;-84
2022/05/19 02:54:25;;;;;;;26.07;19.37;;;;;;;18.94;81.10;101452.50;6409328;23;20516;-84
2022/05/19 02:56:57;;;;;;;19.07;17.07;;;;;;;18.91;81.05;101457.03;6410961;23;20037;-86
2022/05/19 02:59:30;;;;;;;21.30;17.73;;;;;;;18.94;80.84;101456.94;6412046;23;20397;-84
2022/05/19 03:02:01;;;;;;;22.58;17.70;;;;;;;18.94;80.77;101467.50;6413589;23;20009;-84
2022/05/19 03:04:33;;;;;;;20.57;17.67;;;;;;;19.04;79.57;101497.06;6412794;23;20093;-85
2022/05/19 03:07:04;;;;;;;21.60;16.37;;;;;;;19.17;78.79;101577.63;6389624;23;20001;-83
2022/05/19 03:09:36;;;;;;;26.17;20.23;;;;;;;19.15;79.83;101583.91;6412986;23;20424;-85
2022/05/19 03:12:09;;;;;;;23.40;19.83;;;;;;;19.23;77.95;101582.69;6414918;23;20068;-85
2022/05/19 03:14:40;;;;;;;25.90;18.98;;;;;;;19.39;76.90;101587.44;6414728;23;20077;-85
2022/05/19 03:17:12;;;;;;;19.97;17.13;;;;;;;19.43;76.48;101605.78;6414342;23;20469;-83
2022/05/19 03:19:44;;;;;;;25.47;16.97;;;;;;;19.62;74.94;101613.84;6425633;23;20006;-85
2022/05/19 03:22:16;;;;;;;19.90;16.75;;;;;;;19.60;75.24;101598.97;6433405;23;20024;-82
2022/05/19 03:24:48;;;;;;;23.13;17.23;;;;;;;19.59;75.85;101613.13;6429410;23;20006;-86
2022/05/19 03:27:20;;;;;;;20.40;18.25;;;;;;;19.58;75.35;101614.91;6432477;23;20005;-82
2022/05/19 03:29:53;;;;;;;22.05;16.20;;;;;;;19.57;75.31;101618.47;6433695;23;20350;-82
2022/05/19 03:32:24;;;;;;;21.48;17.20;;;;;;;19.55;75.39;101607.09;6423986;23;20009;-85
2022/05/19 03:34:56;;;;;;;29.03;17.70;;;;;;;19.55;75.11;101611.53;6421383;23;20009;-86
2022/05/19 03:37:28;;;;;;;18.90;16.50;;;;;;;19.50;75.95;101606.41;6419969;23;20005;-86
2022/05/19 03:39:59;;;;;;;20.85;16.75;;;;;;;19.50;75.44;101614.34;6415975;23;20089;-85
2022/05/19 03:42:30;;;;;;;21.03;17.00;;;;;;;19.50;75.57;101611.69;6415847;23;20431;-85
2022/05/19 03:45:04;;;;;;;21.87;16.00;;;;;;;19.44;75.96;101610.13;6414592;23;20077;-85
2022/05/19 03:47:35;;;;;;;21.98;16.70;;;;;;;19.45;76.25;101618.94;6413018;23;20010;-85
2022/05/19 03:50:07;;;;;;;18.17;14.70;;;;;;;19.30;77.61;101589.50;6414425;23;20032;-87
2022/05/19 03:52:40;;;;;;;20.90;15.93;;;;;;;19.15;78.38;101595.31;6412995;23;20614;-83
2022/05/19 03:55:14;;;;;;;18.63;15.98;;;;;;;19.16;79.37;101597.06;6388550;23;20009;-86
2022/05/19 03:57:46;;;;;;;19.80;16.65;;;;;;;19.12;78.97;101593.63;6413553;23;20005;-86
2022/05/19 04:00:18;;;;;;;22.17;16.55;;;;;;;19.12;78.45;101613.94;6413905;23;20040;-86
2022/05/19 04:02:50;;;;;;;21.55;16.50;;;;;;;19.15;78.69;101626.19;6413438;23;20042;-85
2022/05/19 04:05:21;;;;;;;22.17;17.43;;;;;;;19.20;78.41;101627.72;6412954;23;20001;-85
2022/05/19 04:07:53;;;;;;;21.03;15.80;;;;;;;19.18;78.47;101620.78;6412471;23;20277;-86
2022/05/19 04:10:24;;;;;;;18.60;15.30;;;;;;;19.24;79.68;101624.06;6414419;23;20080;-87
2022/05/19 04:12:56;;;;;;;20.53;15.77;;;;;;;19.18;79.22;101626.94;6428932;23;20021;-86
2022/05/19 04:15:27;;;;;;;25.47;18.10;;;;;;;19.11;79.50;101607.78;6404202;23;20044;-85
2022/05/19 04:17:58;;;;;;;21.93;16.73;;;;;;;19.12;79.76;101613.94;6425879;23;20241;-84
2022/05/19 04:20:30;;;;;;;17.07;15.13;;;;;;;19.15;79.22;101616.47;6413685;23;20009;-87
2022/05/19 04:23:02;;;;;;;18.42;14.60;;;;;;;19.14;80.29;101620.00;6411409;23;20010;-86
2022/05/19 04:25:33;;;;;;;22.00;15.83;;;;;;;19.13;79.73;101632.38;6412301;23;20064;-87
2022/05/19 04:28:05;;;;;;;22.17;16.95;;;;;;;19.23;80.36;101627.63;6411918;23;20005;-87
2022/05/19 04:30:37;;;;;;;21.75;17.88;;;;;;;19.21;79.81;101621.53;6412621;23;20388;-86
2022/05/19 04:33:09;;;;;;;17.93;15.50;;;;;;;19.20;80.30;101611.03;6412305;23;20005;-85
2022/05/19 04:35:41;;;;;;;24.73;17.25;;;;;;;19.24;80.69;101612.63;6411228;23;20012;-86
2022/05/19 04:38:15;;;;;;;20.80;16.67;;;;;;;19.31;80.06;101616.78;6411151;23;20546;-85
2022/05/19 04:40:49;;;;;;;18.35;16.23;;;;;;;19.25;80.25;101606.41;6412619;23;20084;-86
2022/05/19 04:43:22;;;;;;;19.73;17.63;;;;;;;19.23;79.81;101617.06;6362052;23;20032;-83
2022/05/19 04:45:55;;;;;;;23.10;18.88;;;;;;;19.20;80.93;101621.59;6412046;23;20016;-84
2022/05/19 04:48:26;;;;;;;;;;;;;;;19.36;78.72;101622.75;6412141;23;20009;-85
2022/05/19 04:50:59;;;;;;;19.33;17.25;;;;;;;19.22;79.32;101612.66;6410618;23;19955;-86
2022/05/19 04:53:30;;;;;;;22.70;17.00;;;;;;;19.24;80.74;101605.56;6410495;23;20084;-85
2022/05/19 04:56:02;;;;;;;19.97;16.17;;;;;;;19.28;80.17;101604.53;6411818;23;20037;-86
2022/05/19 04:58:34;;;;;;;24.10;16.77;;;;;;;19.25;80.94;101604.63;6412072;23;20021;-80
2022/05/19 05:01:05;;;;;;;20.93;16.37;;;;;;;19.26;80.19;101616.09;6413052;23;20009;-82
2022/05/19 05:03:37;;;;;;;18.67;16.63;;;;;;;19.21;80.63;101615.41;6418719;23;20024;-87
2022/05/19 05:06:08;;;;;;;20.57;16.23;;;;;;;19.23;81.29;101616.19;6414595;23;20002;-84
2022/05/19 05:08:39;;;;;;;20.27;16.97;;;;;;;19.20;81.29;101606.59;6413279;23;20041;-86
2022/05/19 05:11:11;;;;;;;20.23;15.13;;;;;;;19.21;81.19;101604.81;6412111;23;20012;-85
2022/05/19 05:13:42;;;;;;;16.73;14.83;;;;;;;19.16;81.87;101589.13;6411075;23;20021;-86
2022/05/19 05:16:14;;;;;;;18.30;13.03;;;;;;;19.18;80.92;101594.34;6412756;23;20012;-86
2022/05/19 05:18:45;;;;;;;13.13;10.73;;;;;;;19.17;80.43;101582.91;6388373;23;20013;-81
2022/05/19 05:21:16;;;;;;;15.33;12.13;;;;;;;19.12;82.48;101567.22;6415273;23;20297;-84
2022/05/19 05:23:48;;;;;;;18.37;13.37;;;;;;;19.02;84.34;101563.19;6407728;23;20330;-83
2022/05/19 05:26:19;;;;;;;16.37;12.83;;;;;;;19.02;86.69;101568.47;6406963;23;20363;-83
2022/05/19 05:28:51;;;;;;;18.77;14.43;;;;;;;18.97;88.41;101544.00;6404803;23;20072;-84
2022/05/19 05:31:24;;;;;;;20.83;13.83;;;;;;;19.04;87.67;101549.91;6380593;23;20013;-85
2022/05/19 05:33:55;;;;;;;23.60;14.20;;;;;;;18.97;88.77;101551.06;6405928;23;19997;-83
2022/05/19 05:36:27;;;;;;;19.03;15.03;;;;;;;18.97;89.84;101535.22;6407367;23;20166;-82
2022/05/19 05:38:58;;;;;;;15.35;13.77;;;;;;;19.02;90.31;101531.47;6404885;23;20006;-83
2022/05/19 05:41:29;;;;;;;20.10;14.77;;;;;;;18.97;90.92;101522.00;6379742;23;20428;-82
2022/05/19 05:44:01;;;;;;;20.37;14.57;;;;;;;18.92;90.83;101501.88;6406243;23;20037;-84
2022/05/19 05:46:32;;;;;;;16.80;13.53;;;;;;;18.85;89.64;101505.69;6407032;23;20013;-84
2022/05/19 05:49:05;;;;;;;15.18;13.52;;;;;;;18.81;90.51;101489.97;6411202;23;20002;-84
2022/05/19 05:51:36;;;;;;;16.02;12.32;;;;;;;18.62;89.28;101492.41;6392985;23;20410;-84
2022/05/19 05:54:10;;;;;;;15.47;11.90;;;;;;;18.71;89.56;101518.50;6409774;23;19997;-83
2022/05/19 05:56:41;;;;;;;17.42;12.75;;;;;;;18.72;90.70;101504.34;6406432;23;20043;-85
2022/05/19 05:59:13;;;;;;;15.30;11.90;;;;;;;18.79;90.85;101500.59;6412758;23;20005;-84
2022/05/19 06:01:44;;;;;;;18.57;12.57;;;;;;;18.85;90.54;101505.69;6381902;23;20010;-85
2022/05/19 06:04:16;;;;;;;19.02;12.90;;;;;;;18.78;91.44;101491.78;6381380;23;20017;-84
2022/05/19 06:06:48;;;;;;;19.02;15.05;;;;;;;18.76;91.49;101482.19;6407614;23;20080;-85
2022/05/19 06:09:19;;;;;;;20.73;15.80;;;;;;;18.80;91.30;101507.56;6407441;23;20068;-82
2022/05/19 06:11:51;;;;;;;20.87;15.07;;;;;;;18.94;89.49;101515.91;6411356;23;20312;-85
2022/05/19 07:22:34;;;;;;;;;;;;;;;;;;;;;
2022/05/19 07:41:03;;;;;;;15.48;13.85;;;;;;;21.16;77.93;101499.91;5911630;24;20021;-84
2022/05/19 08:08:44;;;;;;;14.52;12.55;;;;;;;22.38;71.47;101479.88;6332217;23;20038;-81
2022/05/19 08:32:32;;;;;;;;;;;;;;;;;;;;;
2022/05/19 08:35:20;;;;;;;10.90;9.25;;;;;;;23.97;61.66;101484.56;6059067;24;20139;-80
2022/05/19 08:37:52;;;;;;;16.52;9.60;;;;;;;24.07;61.85;101476.91;6082216;24;20060;-80
2022/05/19 08:40:51;;;;;;;11.77;8.63;;;;;;;24.29;58.34;101463.16;6083202;24;20014;-81
2022/05/19 08:44:20;;;;;;;11.07;9.30;;;;;;;24.39;58.48;101460.78;6137714;24;20017;-81
2022/05/19 08:51:24;;;;;;;13.93;8.30;;;;;;;25.27;57.62;101460.72;6025860;24;20020;-81
2022/05/19 09:01:03;;;;;;;15.20;7.43;;;;;;;25.62;54.35;101441.59;5989793;25;20339;-80
2022/05/19 09:03:50;;;;;;;10.82;7.57;;;;;;;25.68;51.89;101443.84;5981659;25;20020;-82
2022/05/19 09:10:51;;;;;;;11.50;7.20;;;;;;;25.79;52.71;101449.34;5925736;25;20058;-81
2022/05/19 11:46:25;;;;;;;49.97;10.20;;;;;;;17.96;98.50;101686.25;6373778;23;20030;-75
2022/05/19 11:55:25;;;;;;;13.13;3.15;;;;;;;16.02;100.00;101646.38;6372720;23;20018;-76
2022/05/19 11:58:10;;;;;;;10.32;3.45;;;;;;;15.80;100.00;101641.53;6346552;23;20017;-78
2022/05/19 12:01:22;;;;;;;10.75;3.05;;;;;;;15.66;100.00;101633.94;6373120;23;20455;-79
2022/05/19 12:03:54;;;;;;;8.30;2.63;;;;;;;15.55;100.00;101625.38;6372308;23;20006;-76
2022/05/19 12:06:53;;;;;;;5.30;2.53;;;;;;;15.68;100.00;101610.22;6372752;23;20016;-76
2022/05/19 12:09:41;;;;;;;7.57;3.20;;;;;;;15.62;100.00;101615.63;6372049;23;20008;-78
2022/05/19 12:12:16;;;;;;;5.45;2.92;;;;;;;15.62;100.00;101636.66;6348263;23;20038;-79
2022/05/19 12:14:50;;;;;;;6.32;3.78;;;;;;;15.83;100.00;101641.50;6372704;23;20607;-77
2022/05/19 12:17:31;;;;;;;8.38;4.70;;;;;;;15.88;100.00;101623.00;6373185;23;20006;-77
2022/05/19 12:20:40;;;;;;;11.07;5.68;;;;;;;15.88;100.00;101609.84;6373349;23;20001;-77
2022/05/19 12:23:38;;;;;;;10.10;7.25;;;;;;;16.03;100.00;101604.25;6373184;23;20068;-78
2022/05/19 12:26:12;;;;;;;14.45;9.18;;;;;;;16.16;100.00;101581.13;6373963;23;20008;-78
2022/05/19 12:28:51;;;;;;;14.60;10.48;;;;;;;16.30;100.00;101572.94;6373239;23;20002;-78
2022/05/19 12:34:27;;;;;;;15.13;13.63;;;;;;;16.43;100.00;101607.72;6373147;23;20017;-80
2022/05/19 12:37:29;;;;;;;16.85;15.02;;;;;;;16.56;100.00;101626.69;6372844;23;20006;-79
2022/05/19 12:40:19;;;;;;;20.65;16.60;;;;;;;16.58;100.00;101631.03;6373039;23;20010;-79
2022/05/19 12:43:15;;;;;;;18.67;16.17;;;;;;;16.88;100.00;101615.38;6347376;23;20570;-79
2022/05/19 12:45:52;;;;;;;23.15;19.90;;;;;;;16.94;100.00;101594.16;6373763;23;20013;-78
2022/05/19 12:48:46;;;;;;;21.48;17.58;;;;;;;16.84;100.00;101594.41;6373546;23;20005;-80
2022/05/19 12:51:25;;;;;;;21.30;19.05;;;;;;;17.03;100.00;101574.59;6374780;23;20013;-81
2022/05/19 12:54:06;;;;;;;21.77;19.02;;;;;;;17.16;100.00;101563.75;6373380;23;20061;-81
2022/05/19 12:56:40;;;;;;;17.83;15.98;;;;;;;16.75;100.00;101592.88;6372970;23;20006;-81
2022/05/19 12:59:35;;;;;;;17.55;15.90;;;;;;;16.83;100.00;101634.81;6373762;23;20013;-80
2022/05/19 13:02:19;;;;;;;21.35;19.13;;;;;;;17.33;100.00;101658.16;6373182;23;20496;-79
2022/05/19 13:04:57;;;;;;;32.17;27.23;;;;;;;18.38;100.00;101633.06;6372360;23;20014;-79
2022/05/19 13:07:38;;;;;;;31.08;28.08;;;;;;;20.85;100.00;101591.38;6372922;23;20006;-80
2022/05/19 13:10:26;;;;;;;23.92;21.73;;;;;;;21.73;100.00;101587.47;6373105;23;20406;-80
2022/05/19 13:13:34;;;;;;;16.95;13.45;;;;;;;22.04;100.00;101576.25;6372762;23;20013;-79
2022/05/19 13:16:18;;;;;;;11.25;9.63;;;;;;;20.91;100.00;101561.94;6373503;23;20016;-80
2022/05/19 13:18:52;;;;;;;12.65;9.68;;;;;;;20.32;100.00;101559.13;6372431;23;20055;-80
2022/05/19 13:21:37;;;;;;;14.40;10.35;;;;;;;20.18;100.00;101570.25;6372821;23;20064;-79
2022/05/19 13:24:13;;;;;;;9.43;8.48;;;;;;;19.61;100.00;101622.72;6372220;23;20073;-79
2022/05/19 13:26:46;;;;;;;11.63;9.15;;;;;;;19.34;100.00;101663.41;6372571;23;20017;-79
2022/05/19 13:32:11;;;;;;;8.65;7.82;;;;;;;18.48;100.00;101719.91;6372302;23;20384;-79
2022/05/19 13:34:44;;;;;;;12.40;9.30;;;;;;;18.27;100.00;101679.19;6372326;23;20540;-79
2022/05/19 13:37:35;;;;;;;13.18;10.50;;;;;;;18.40;100.00;101631.28;6372270;23;20013;-79
2022/05/19 13:40:12;;;;;;;15.98;11.85;;;;;;;18.26;100.00;101503.28;6371268;23;20396;-78
2022/05/19 13:42:58;;;;;;;16.40;12.75;;;;;;;18.10;100.00;101534.63;6371377;23;20093;-78
2022/05/19 13:45:34;;;;;;;12.10;9.95;;;;;;;17.95;100.00;101520.13;6371313;23;20013;-79
2022/05/19 13:48:17;;;;;;;15.07;12.82;;;;;;;18.82;100.00;101537.47;6371671;23;20510;-79
2022/05/19 13:50:49;;;;;;;18.83;13.57;;;;;;;19.16;100.00;101553.88;6371393;23;20060;-78
2022/05/19 13:53:21;;;;;;;13.95;11.75;;;;;;;19.83;100.00;101569.88;6371281;23;20014;-78
2022/05/19 13:55:58;;;;;;;17.35;13.32;;;;;;;20.33;100.00;101582.00;6371552;23;20002;-78
2022/05/19 13:58:32;;;;;;;11.93;9.68;;;;;;;20.94;99.69;101575.06;6371387;23;20012;-79
2022/05/19 14:01:08;;;;;;;11.07;9.30;;;;;;;21.10;93.99;101578.75;6371557;23;20096;-79
2022/05/19 14:03:42;;;;;;;10.82;9.75;;;;;;;22.29;97.47;101570.63;6372380;23;20021;-80
2022/05/19 14:06:18;;;;;;;9.85;8.80;;;;;;;22.88;91.46;101568.53;6371127;23;20018;-79
2022/05/19 14:08:50;;;;;;;7.93;7.13;;;;;;;24.67;81.74;101565.78;6372038;23;20350;-79
2022/05/19 14:11:22;;;;;;;9.05;6.47;;;;;;;25.91;73.49;101585.69;6373115;23;20033;-80
2022/05/19 14:13:56;;;;;;;7.30;5.85;;;;;;;25.40;70.55;101596.94;6374403;23;20017;-80
2022/05/19 14:16:31;;;;;;;7.72;5.65;;;;;;;24.78;74.01;101607.78;6374802;23;20010;-80
2022/05/19 14:19:18;;;;;;;7.15;5.05;;;;;;;24.98;81.96;101622.59;6373946;23;20006;-80
2022/05/19 14:21:49;;;;;;;8.73;5.90;;;;;;;25.29;74.30;101622.47;6375973;23;20423;-80
2022/05/19 14:24:21;;;;;;;7.88;4.40;;;;;;;25.36;68.57;101625.63;6326795;23;20020;-80
2022/05/19 14:26:55;;;;;;;7.70;4.65;;;;;;;25.53;75.40;101634.38;6376967;23;20313;-78
2022/05/19 14:29:38;;;;;;;6.20;4.43;;;;;;;25.44;77.79;101630.50;6376633;23;20081;-79
2022/05/19 14:32:34;;;;;;;7.45;4.68;;;;;;;24.72;76.82;101651.69;6373464;23;20014;-80
2022/05/19 14:35:18;;;;;;;6.68;4.95;;;;;;;23.52;81.80;101656.50;6287088;23;20011;-79
2022/05/19 14:38:01;;;;;;;8.65;5.32;;;;;;;22.67;78.11;101652.88;6310207;23;20011;-80
2022/05/19 14:43:43;;;;;;;9.80;5.40;;;;;;;21.48;83.20;101660.25;6309394;23;20023;-80
2022/05/19 14:46:20;;;;;;;7.32;5.15;;;;;;;21.13;84.58;101670.56;6308875;23;20018;-80
2022/05/19 14:49:05;;;;;;;6.55;4.97;;;;;;;20.87;87.53;101683.13;6308814;23;20095;-80
2022/05/19 14:51:39;;;;;;;10.35;6.50;;;;;;;20.27;87.32;101690.81;6309880;23;20881;-81
2022/05/19 14:54:12;;;;;;;7.57;5.65;;;;;;;20.64;91.21;101696.47;6310423;23;20396;-81
2022/05/19 14:56:48;;;;;;;7.53;6.18;;;;;;;20.68;88.49;101690.97;6310457;23;20505;-80
2022/05/19 14:59:41;;;;;;;7.20;5.70;;;;;;;22.98;82.74;101687.72;6310757;23;20063;-80
2022/05/19 15:02:13;;;;;;;;;;;;;;;25.64;81.61;101698.66;6311878;23;20528;-81
2022/05/19 15:04:44;;;;;;;9.00;5.27;;;;;;;26.25;67.08;101701.09;6310308;23;20000;-77
2022/05/19 15:08:01;;;;;;;8.68;6.28;;;;;;;26.52;69.84;101688.59;6311389;23;20487;-81
2022/05/19 15:10:34;;;;;;;8.55;5.65;;;;;;;26.78;60.46;101690.53;6308661;23;20075;-82
2022/05/19 15:13:05;;;;;;;8.75;5.45;;;;;;;27.52;61.93;101690.84;6367501;23;20026;-82
2022/05/19 15:15:38;;;;;;;7.15;5.55;;;;;;;27.61;56.68;101690.19;6374004;23;20292;-80
2022/05/19 15:18:10;;;;;;;7.60;5.88;;;;;;;28.23;54.51;101699.22;6374400;23;20006;-83
2022/05/19 15:20:43;;;;;;;;;;;;;;;27.89;55.13;101701.63;6375245;23;20033;-82
2022/05/19 15:23:15;;;;;;;;;;;;;;;28.06;55.23;101708.47;6374172;23;19912;-83
2022/05/19 15:25:47;;;;;;;5.75;5.07;;;;;;;27.57;55.32;101715.47;6374314;23;19912;-81
2022/05/19 15:28:18;;;;;;;8.63;6.28;;;;;;;27.68;55.24;101714.72;6348637;23;20503;-81
2022/05/19 15:30:50;;;;;;;;;;;;;;;29.50;61.66;101717.41;6374874;23;20009;-81
2022/05/19 15:33:21;;;;;;;7.73;5.60;;;;;;;29.29;49.94;101723.47;6376014;23;19928;-84
2022/05/19 15:35:53;;;;;;;;;;;;;;;29.50;53.44;101726.31;6376542;23;20052;-81
2022/05/19 15:38:25;;;;;;;7.33;5.73;;;;;;;27.68;54.10;101726.28;6374167;23;19915;-83
2022/05/19 15:40:56;;;;;;;8.55;5.90;;;;;;;25.54;58.34;101730.41;6374294;23;20064;-82
2022/05/19 15:43:28;;;;;;;;;;;;;;;26.05;61.67;101726.41;6373891;23;20010;-83
2022/05/19 15:46:00;;;;;;;9.73;6.57;;;;;;;24.73;63.08;101738.72;6347690;23;19952;-82
2022/05/19 15:48:31;;;;;;;6.47;5.88;;;;;;;24.80;66.58;101748.06;6373609;23;20010;-83
2022/05/19 15:51:04;;;;;;;10.60;8.23;;;;;;;23.76;65.19;101746.66;6374124;23;20061;-82
2022/05/19 15:53:35;;;;;;;9.63;6.82;;;;;;;23.05;69.55;101736.97;6374420;23;20499;-82
2022/05/19 15:56:07;;;;;;;12.13;8.03;;;;;;;22.81;71.31;101744.34;6373308;23;20116;-81
2022/05/19 15:58:38;;;;;;;10.97;6.70;;;;;;;22.65;71.56;101738.94;6375151;23;20312;-80
2022/05/19 16:01:10;;;;;;;12.67;7.67;;;;;;;22.40;74.16;101740.13;6349426;23;20005;-82
2022/05/19 16:03:44;;;;;;;10.07;7.40;;;;;;;22.17;73.98;101741.13;6373273;23;20009;-82
2022/05/19 16:06:16;;;;;;;11.45;7.57;;;;;;;21.89;74.52;101734.44;6373420;23;20006;-83
2022/05/19 16:08:47;;;;;;;10.50;8.45;;;;;;;21.86;76.27;101742.56;6373580;23;20059;-84
2022/05/19 16:11:18;;;;;;;11.30;7.50;;;;;;;21.77;74.83;101749.16;6372905;23;20010;-79
2022/05/19 16:13:50;;;;;;;9.10;8.23;;;;;;;21.52;76.54;101752.00;6373027;23;20479;-84
2022/05/19 16:16:22;;;;;;;9.52;7.80;;;;;;;21.64;76.25;101759.44;6372850;23;20006;-81
2022/05/19 16:18:54;;;;;;;13.77;7.70;;;;;;;21.78;75.22;101752.66;6374223;23;20013;-80
2022/05/19 16:21:27;;;;;;;;;;;;;;;21.79;74.13;101763.19;6373563;23;20009;-81
2022/05/19 16:24:01;;;;;;;10.50;6.68;;;;;;;21.45;72.13;101759.34;6373540;23;19920;-81
2022/05/19 16:26:32;;;;;;;9.93;7.07;;;;;;;21.51;73.13;101763.56;6372762;23;20006;-82
2022/05/19 16:29:03;;;;;;;7.33;6.27;;;;;;;21.55;72.90;101772.25;6373156;23;20036;-80
2022/05/19 16:31:35;;;;;;;7.80;6.20;;;;;;;21.53;74.59;101768.81;6373064;23;20061;-81
2022/05/19 16:34:07;;;;;;;9.53;6.90;;;;;;;21.42;74.13;101770.06;6372536;23;20016;-81
2022/05/19 16:36:39;;;;;;;8.65;6.78;;;;;;;21.57;73.85;101771.22;6372968;23;20467;-83
2022/05/19 16:39:10;;;;;;;7.68;6.57;;;;;;;21.13;73.97;101772.16;6373797;23;20013;-81
2022/05/19 16:41:41;;;;;;;9.07;6.70;;;;;;;21.02;74.92;101768.25;6373284;23;20010;-78
2022/05/19 16:44:13;;;;;;;9.77;6.73;;;;;;;20.87;74.68;101764.44;6375284;23;20041;-83
2022/05/19 16:46:44;;;;;;;8.63;7.00;;;;;;;21.79;72.36;101770.31;6372189;23;20085;-81
2022/05/19 16:49:17;;;;;;;7.53;5.53;;;;;;;23.44;67.56;101766.03;6374353;23;20381;-81
2022/05/19 16:51:49;;;;;;;7.28;5.15;;;;;;;24.25;61.46;101770.66;6376333;23;19998;-83
2022/05/19 17:00:04;;;;;;;5.47;3.17;;;;;;;24.29;55.82;101774.88;6382780;23;20018;-83
2022/05/19 17:02:37;;;;;;;6.38;3.25;;;;;;;23.89;56.74;101778.84;6378502;23;20025;-82
2022/05/19 17:05:09;;;;;;;4.00;2.90;;;;;;;23.78;56.86;101782.03;6375804;23;20014;-82
2022/05/19 17:07:41;;;;;;;5.85;3.40;;;;;;;23.53;58.76;101774.47;6374515;23;20006;-82
2022/05/19 17:10:15;;;;;;;4.53;3.63;;;;;;;22.26;60.97;101780.56;6374305;23;20010;-82
2022/05/19 17:12:50;;;;;;;7.88;3.97;;;;;;;22.37;62.73;101783.59;6374531;23;20842;-83
2022/05/19 17:15:23;;;;;;;9.48;4.72;;;;;;;22.74;60.07;101791.66;6374125;23;20037;-81